WEATHER DATA

YESTERDAY
Time Temp. Dewp. Hum. Wind dir Wind speed Wind gust Bar. 1h Prec. 24h Prec.
00:00 17.3 7.4 52 343 1.4 3.3 1019.4 0.0000 0.0000
00:10 17.4 7.5 52 347 1.1 2.5 1019.4 0.0000 0.0000
00:20 17.5 7.5 52 348 0.8 1.7 1019.4 0.0000 0.0000
00:31 17.5 7.5 52 344 1.1 1.9 1019.4 0.0000 0.0000
00:41 17.3 7.6 53 10 0.6 1.7 1019.4 0.0000 0.0000
00:51 17 7.6 54 329 0.8 1.7 1019.5 0.0000 0.0000
01:01 16.6 7.8 56 288 1.1 1.7 1019.5 0.0000 0.0000
01:11 16.2 7.9 58 291 1.1 2.2 1019.5 0.0000 0.0000
01:21 15.8 7.8 59 300 0.6 1.4 1019.5 0.0000 0.0000
01:31 15.3 7.8 61 298 0.8 1.7 1019.5 0.0000 0.0000
01:42 15 7.8 62 315 0.6 1.4 1019.4 0.0000 0.0000
01:52 14.6 7.6 63 306 0.6 1.4 1019.4 0.0000 0.0000
02:01 14.3 7.6 64 290 0.8 1.9 1019.4 0.0000 0.0000
02:12 14 7.5 65 7 0.6 1.1 1019.4 0.0000 0.0000
02:22 13.6 7.6 67 322 0.6 1.4 1019.4 0.0000 0.0000
02:32 13.3 7.5 68 318 0.6 1.7 1019.4 0.0000 0.0000
02:42 13.1 7.5 69 349 0.6 1.1 1019.4 0.0000 0.0000
02:53 12.8 7.5 70 315 0.8 1.9 1019.4 0.0000 0.0000
03:03 12.6 7.5 71 302 0.8 1.9 1019.4 0.0000 0.0000
03:12 12.4 7.5 72 297 0.8 1.7 1019.4 0.0000 0.0000
03:22 12.2 7.3 72 349 0.6 1.4 1019.3 0.0000 0.0000
03:33 12.1 7.4 73 292 0.6 1.7 1019.2 0.0000 0.0000
03:43 11.9 7.4 74 349 0.6 1.4 1019.2 0.0000 0.0000
03:53 11.7 7.2 74 335 0.6 1.1 1019.2 0.0000 0.0000
04:03 11.5 7.2 75 346 0.6 1.4 1019.2 0.0000 0.0000
04:13 11.4 7.1 75 329 0.6 1.4 1019.1 0.0000 0.0000
04:23 11.3 7 75 315 0.6 1.7 1019.1 0.0000 0.0000
04:33 11.1 7 76 315 0.6 1.7 1019 0.0000 0.0000
04:44 11 6.9 76 347 0.6 1.4 1019 0.0000 0.0000
04:54 10.9 7 77 333 0.3 0.8 1019 0.0000 0.0000
05:04 10.7 6.8 77 16 0.3 1.1 1019 0.0000 0.0000
05:14 10.6 6.7 77 9 0.6 1.1 1019 0.0000 0.0000
05:24 10.6 6.9 78 1 0.6 1.4 1019 0.0000 0.0000
05:34 10.5 7 79 357 0.6 1.4 1019 0.0000 0.0000
05:44 10.6 7.1 79 26 0.3 1.1 1019 0.0000 0.0000
05:55 10.9 7.6 80 2 0.6 1.4 1019 0.0000 0.0000
06:05 11.5 8.2 80 15 0.6 1.4 1019 0.0000 0.0000
06:14 12.3 9 80 45 0.6 0.8 1019.1 0.0000 0.0000
06:24 13.3 9.5 78 41 0.3 0.6 1019.1 0.0000 0.0000
06:35 14.4 10 75 90 0.3 0.8 1019.1 0.0000 0.0000
06:45 15.5 10.5 72 80 0.8 1.1 1019.2 0.0000 0.0000
06:55 16.5 11.2 71 90 0.6 1.1 1019.1 0.0000 0.0000
07:05 17.4 11.4 68 90 0.6 1.1 1019 0.0000 0.0000
07:15 18.2 12 67 90 0.6 0.8 1019 0.0000 0.0000
07:25 19.1 12.1 64 90 0.6 1.1 1019 0.0000 0.0000
07:35 19.8 12.3 62 45 0.6 1.4 1019 0.0000 0.0000
07:46 20.4 12.4 60 66 0.8 1.4 1018.8 0.0000 0.0000
07:56 21 12.7 59 55 0.6 1.1 1018.7 0.0000 0.0000
08:05 21.4 12.3 56 90 0.8 1.7 1018.7 0.0000 0.0000
08:16 22 12.8 56 90 0.8 1.7 1018.8 0.0000 0.0000
08:26 22.6 12.8 54 90 1.1 1.7 1019 0.0000 0.0000
08:36 22.8 13.3 55 79 0.8 1.9 1019 0.0000 0.0000
08:46 23.2 13.1 53 73 1.1 1.7 1019 0.0000 0.0000
08:57 23.7 13.6 53 77 0.8 1.7 1018.8 0.0000 0.0000
09:06 24 13.2 51 72 0.8 1.7 1018.8 0.0000 0.0000
09:16 24.2 13.4 51 45 0.6 1.7 1018.8 0.0000 0.0000
09:26 24.4 13.3 50 90 0.8 1.7 1018.8 0.0000 0.0000
09:37 24.7 12.6 47 90 0.8 1.7 1018.7 0.0000 0.0000
09:47 24.9 13.5 49 137 0.8 2.2 1018.7 0.0000 0.0000
09:57 25.2 12.8 46 106 0.6 1.9 1018.7 0.0000 0.0000
10:07 25.5 13 46 150 0.6 1.4 1018.6 0.0000 0.0000
10:17 25.7 13.2 46 90 1.1 1.9 1018.5 0.0000 0.0000
10:27 25.9 13.4 46 106 1.1 1.9 1018.5 0.0000 0.0000
10:37 26 13.2 45 102 0.8 1.9 1018.5 0.0000 0.0000
10:48 26.3 13.1 44 124 0.8 1.9 1018.4 0.0000 0.0000
10:58 26.4 13.5 45 112 0.8 1.4 1018.3 0.0000 0.0000
11:08 26.7 14.5 47 111 0.6 1.4 1018.3 0.0000 0.0000
11:18 26.8 13.5 44 149 1.4 2.5 1018.3 0.0000 0.0000
11:28 26.9 14 45 120 0.8 1.9 1018.2 0.0000 0.0000
11:38 27 13.4 43 133 1.4 2.5 1018.2 0.0000 0.0000
11:48 27 13.7 44 157 1.4 3.1 1018.1 0.0000 0.0000
11:59 26.9 13.6 44 129 1.1 3.3 1018.1 0.0000 0.0000
12:09 26.7 13.1 43 132 1.1 2.8 1018 0.0000 0.0000
12:18 26.6 13 43 133 1.1 2.5 1017.9 0.0000 0.0000
12:28 26.4 12.8 43 144 1.4 4.4 1017.8 0.0000 0.0000
12:39 26.3 12.4 42 135 1.9 3.9 1017.8 0.0000 0.0000
12:49 26.1 11.8 41 141 1.9 4.4 1017.7 0.0000 0.0000
12:59 26 12.1 42 124 1.4 3.1 1017.6 0.0000 0.0000
13:10 25.9 11.7 41 121 1.4 2.8 1017.6 0.0000 0.0000
13:19 26 11.4 40 164 1.4 2.8 1017.5 0.0000 0.0000
13:29 26 11.7 41 137 1.4 3.3 1017.3 0.0000 0.0000
13:39 25.9 11.3 40 123 1.7 3.9 1017.2 0.0000 0.0000
13:50 25.7 11.8 42 135 1.7 3.3 1017.2 0.0000 0.0000
14:00 25.8 11.2 40 136 1.9 3.1 1017.1 0.0000 0.0000
14:10 25.7 11.1 40 160 1.1 3.3 1017 0.0000 0.0000
14:20 25.7 11.1 40 141 1.7 4.4 1016.8 0.0000 0.0000
14:30 25.7 11.5 41 184 0.8 2.2 1016.8 0.0000 0.0000
14:40 25.7 11.5 41 176 1.1 2.2 1016.6 0.0000 0.0000
14:50 25.7 12.2 43 151 1.4 2.5 1016.6 0.0000 0.0000
15:01 25.7 12.2 43 169 1.4 3.1 1016.4 0.0000 0.0000
15:11 25.7 12.5 44 150 1.9 4.2 1016.3 0.0000 0.0000
15:21 25.7 11.8 42 152 1.7 3.6 1016.2 0.0000 0.0000
15:30 25.7 12.5 44 152 1.4 3.1 1016.1 0.0000 0.0000
15:41 25.7 12.5 44 220 0.8 1.7 1016 0.0000 0.0000
15:51 25.6 12.1 43 164 0.6 2.2 1015.8 0.0000 0.0000
16:01 25.5 12.4 44 119 0.8 1.7 1015.7 0.0000 0.0000
16:12 25.4 11.2 41 332 0.6 1.7 1015.6 0.0000 0.0000
16:22 25.4 11.6 42 270 0.3 1.1 1015.5 0.0000 0.0000
16:31 25.4 11.6 42 270 0.6 1.7 1015.4 0.0000 0.0000
16:41 25.4 11.6 42 276 1.7 2.8 1015.3 0.0000 0.0000
16:52 25.3 10.7 40 54 0.6 1.1 1015.2 0.0000 0.0000
17:02 25.3 11.1 41 296 1.1 2.8 1015.1 0.0000 0.0000
17:12 25.3 11.1 41 323 1.1 3.6 1015 0.0000 0.0000
17:22 25.2 11 41 324 0.6 1.4 1014.9 0.0000 0.0000
17:32 25.2 10.7 40 237 0.6 1.4 1014.8 0.0000 0.0000
17:42 25.1 10.6 40 327 1.4 2.8 1014.6 0.0000 0.0000
17:52 25.1 10.9 41 283 1.1 2.2 1014.6 0.0000 0.0000
18:03 25 10.8 41 296 0.6 1.4 1014.5 0.0000 0.0000
18:13 24.9 10.4 40 334 1.4 2.8 1014.4 0.0000 0.0000
18:23 24.8 10.7 41 284 1.1 2.5 1014.4 0.0000 0.0000
18:33 24.7 10.9 42 285 0.8 1.7 1014.4 0.0000 0.0000
18:43 24.5 11.1 43 289 1.1 1.9 1014.3 0.0000 0.0000
18:53 24.2 10.5 42 296 0.8 1.7 1014.2 0.0000 0.0000
19:03 24 10.7 43 289 0.8 1.7 1014.2 0.0000 0.0000
19:14 23.7 11.1 45 315 0.6 1.4 1014.2 0.0000 0.0000
19:24 23.4 10.8 45 311 0.6 1.4 1014.2 0.0000 0.0000
19:33 23.1 10.9 46 270 0.3 1.1 1014.2 0.0000 0.0000
19:43 22.8 11.2 48 306 0.6 1.1 1014.2 0.0000 0.0000
19:54 22.4 11.5 50 270 0.6 1.4 1014.1 0.0000 0.0000
20:14 21.5 11.8 54 288 0.8 1.4 1014.1 0.0000 0.0000
20:24 20.9 11.5 55 287 0.8 1.7 1014.2 0.0000 0.0000
20:34 20.4 11.3 56 291 0.8 2.2 1014.2 0.0000 0.0000
20:44 19.9 10.9 56 295 0.8 1.9 1014.1 0.0000 0.0000
20:54 19.3 10.6 57 289 1.1 1.9 1014.2 0.0000 0.0000
21:05 18.9 10.2 57 294 1.1 2.2 1014.3 0.0000 0.0000
21:15 18.4 10 58 287 1.1 1.9 1014.4 0.0000 0.0000
21:25 18 9.6 58 290 1.1 2.2 1014.5 0.0000 0.0000
21:35 17.7 9.6 59 284 1.1 1.9 1014.4 0.0000 0.0000
21:45 17.3 9.2 59 296 1.1 2.2 1014.4 0.0000 0.0000
21:55 16.9 9.1 60 292 1.1 1.9 1014.4 0.0000 0.0000
22:05 16.7 9.2 61 290 0.8 1.9 1014.5 0.0000 0.0000
22:16 16.4 8.9 61 292 0.8 1.9 1014.5 0.0000 0.0000
22:26 16.2 8.9 62 290 1.1 2.2 1014.5 0.0000 0.0000
22:35 16 8.7 62 30 0.6 0.8 1014.5 0.0000 0.0000
22:45 15.7 8.7 63 45 0.3 0.6 1014.6 0.0000 0.0000
22:56 15.5 8.7 64 56 0.3 0.6 1014.5 0.0000 0.0000
23:06 15.2 8.7 65 0 0.6 1.1 1014.5 0.0000 0.0000
23:16 14.9 8.6 66 289 0.8 1.7 1014.5 0.0000 0.0000
23:26 14.6 8.5 67 298 0.8 1.7 1014.5 0.0000 0.0000
23:36 14.4 8.6 68 312 0.8 1.4 1014.5 0.0000 0.0000
23:46 14.1 8.5 69 319 0.6 1.1 1014.5 0.0000 0.0000
23:56 13.8 8.2 69 315 0.6 1.4 1014.6 0.0000

DAY STATISTIC

2023-06-01
TEMPERATURE
AVERAGE
20.2
HIGH
27.0
11:38
LOW
10.5
05:34
PRESSURE
AVERAGE
1017.2
HIGH
1019.5
00:51
LOW
1014.1
19:54
DEWPOINT
AVERAGE
10.4
HIGH
14.5
11:08
LOW
6.7
05:14
HUMIDITY
AVERAGE
55
HIGH
80
05:55
LOW
40
13:19
WIND SPEED
AVERAGE
0.9
HIGH
1.9
12:39
WIND GUST
AVERAGE
1.9
HIGH
4.4
12:28
WIND DIRECTION
PREVAILING
NW
23.2%
N
12.7
NE
7.7
E
14.8
SE
17.6
S
4.2
SW
1.4
W
18.3
NW
23.2
PRECIPITATION
RAIN HOUR
0.0
RAIN DAY
0.0
TEMPERATURE (°C)
LOW
10.5
HIGH
27.0
AVERAGE
20.2
PRESSURE (hpa)
LOW
1014.1
HIGH
1019.5
AVERAGE
1017.2
DEVICE